sensor_id;sensor_type;location;lat;lon;timestamp;temperature;humidity
76203;DHT22;64985;46.364;17.008;2023-05-10T00:00:05;4.80;99.90
76203;DHT22;64985;46.364;17.008;2023-05-10T00:03:07;4.80;99.90
76203;DHT22;64985;46.364;17.008;2023-05-10T00:06:10;4.70;99.90
76203;DHT22;64985;46.364;17.008;2023-05-10T00:09:12;4.70;99.90
76203;DHT22;64985;46.364;17.008;2023-05-10T00:12:15;4.70;99.90
76203;DHT22;64985;46.364;17.008;2023-05-10T00:15:17;4.60;99.90
76203;DHT22;64985;46.364;17.008;2023-05-10T00:18:19;4.60;99.90
76203;DHT22;64985;46.364;17.008;2023-05-10T00:21:22;4.60;99.90
76203;DHT22;64985;46.364;17.008;2023-05-10T00:24:24;4.60;99.90
76203;DHT22;64985;46.364;17.008;2023-05-10T00:27:26;4.60;99.90
76203;DHT22;64985;46.364;17.008;2023-05-10T00:30:29;4.50;99.90
76203;DHT22;64985;46.364;17.008;2023-05-10T00:33:31;4.50;99.90
76203;DHT22;64985;46.364;17.008;2023-05-10T00:36:33;4.50;99.90
76203;DHT22;64985;46.364;17.008;2023-05-10T00:39:35;4.40;99.90
76203;DHT22;64985;46.364;17.008;2023-05-10T00:42:37;4.40;99.90
76203;DHT22;64985;46.364;17.008;2023-05-10T00:45:40;4.40;99.90
76203;DHT22;64985;46.364;17.008;2023-05-10T00:48:44;4.50;99.90
76203;DHT22;64985;46.364;17.008;2023-05-10T00:51:47;4.40;99.90
76203;DHT22;64985;46.364;17.008;2023-05-10T00:54:51;4.30;99.90
76203;DHT22;64985;46.364;17.008;2023-05-10T00:57:54;4.40;99.90
76203;DHT22;64985;46.364;17.008;2023-05-10T01:00:56;4.30;99.90
76203;DHT22;64985;46.364;17.008;2023-05-10T01:03:59;4.30;99.90
76203;DHT22;64985;46.364;17.008;2023-05-10T01:07:01;4.30;99.90
76203;DHT22;64985;46.364;17.008;2023-05-10T01:10:08;4.20;99.90
76203;DHT22;64985;46.364;17.008;2023-05-10T01:13:10;4.20;99.90
76203;DHT22;64985;46.364;17.008;2023-05-10T01:16:13;4.20;99.90
76203;DHT22;64985;46.364;17.008;2023-05-10T01:19:27;4.20;99.90
76203;DHT22;64985;46.364;17.008;2023-05-10T01:29:18;4.10;99.90
76203;DHT22;64985;46.364;17.008;2023-05-10T01:36:07;4.20;99.90
76203;DHT22;64985;46.364;17.008;2023-05-10T01:39:17;4.30;99.90
76203;DHT22;64985;46.364;17.008;2023-05-10T01:42:26;4.30;99.90
76203;DHT22;64985;46.364;17.008;2023-05-10T01:46:09;4.30;99.90
76203;DHT22;64985;46.364;17.008;2023-05-10T01:49:23;4.30;99.90
76203;DHT22;64985;46.364;17.008;2023-05-10T01:52:28;4.30;99.90
76203;DHT22;64985;46.364;17.008;2023-05-10T01:55:35;4.40;99.90
76203;DHT22;64985;46.364;17.008;2023-05-10T01:58:39;4.40;99.90
76203;DHT22;64985;46.364;17.008;2023-05-10T02:01:43;4.50;99.90
76203;DHT22;64985;46.364;17.008;2023-05-10T02:04:47;4.60;99.90
76203;DHT22;64985;46.364;17.008;2023-05-10T02:07:51;4.60;99.90
76203;DHT22;64985;46.364;17.008;2023-05-10T02:10:55;4.60;99.90
76203;DHT22;64985;46.364;17.008;2023-05-10T02:13:59;4.60;99.90
76203;DHT22;64985;46.364;17.008;2023-05-10T02:17:04;4.70;99.90
76203;DHT22;64985;46.364;17.008;2023-05-10T02:20:07;4.80;99.90
76203;DHT22;64985;46.364;17.008;2023-05-10T02:23:10;4.90;99.90
76203;DHT22;64985;46.364;17.008;2023-05-10T02:26:14;5.00;99.90
76203;DHT22;64985;46.364;17.008;2023-05-10T02:29:17;5.00;99.90
76203;DHT22;64985;46.364;17.008;2023-05-10T02:32:22;5.00;99.90
76203;DHT22;64985;46.364;17.008;2023-05-10T02:35:25;5.00;99.90
76203;DHT22;64985;46.364;17.008;2023-05-10T02:38:28;5.10;99.90
76203;DHT22;64985;46.364;17.008;2023-05-10T02:41:32;5.10;99.90
76203;DHT22;64985;46.364;17.008;2023-05-10T02:44:36;5.10;99.90
76203;DHT22;64985;46.364;17.008;2023-05-10T02:47:39;5.10;99.90
76203;DHT22;64985;46.364;17.008;2023-05-10T02:50:44;5.10;99.90
76203;DHT22;64985;46.364;17.008;2023-05-10T02:53:49;5.10;99.90
76203;DHT22;64985;46.364;17.008;2023-05-10T02:57:00;5.10;99.90
76203;DHT22;64985;46.364;17.008;2023-05-10T03:00:05;5.10;99.90
76203;DHT22;64985;46.364;17.008;2023-05-10T03:03:08;5.10;99.90
76203;DHT22;64985;46.364;17.008;2023-05-10T03:06:10;5.10;99.90
76203;DHT22;64985;46.364;17.008;2023-05-10T03:09:13;5.00;99.90
76203;DHT22;64985;46.364;17.008;2023-05-10T03:12:29;4.90;99.90
76203;DHT22;64985;46.364;17.008;2023-05-10T03:18:46;4.80;99.90
76203;DHT22;64985;46.364;17.008;2023-05-10T03:21:52;4.80;99.90
76203;DHT22;64985;46.364;17.008;2023-05-10T03:24:56;4.80;99.90
76203;DHT22;64985;46.364;17.008;2023-05-10T03:28:01;4.80;99.90
76203;DHT22;64985;46.364;17.008;2023-05-10T03:31:04;4.90;99.90
76203;DHT22;64985;46.364;17.008;2023-05-10T03:34:08;5.00;99.90
76203;DHT22;64985;46.364;17.008;2023-05-10T03:37:10;5.10;99.90
76203;DHT22;64985;46.364;17.008;2023-05-10T03:40:12;5.00;99.90
76203;DHT22;64985;46.364;17.008;2023-05-10T03:43:15;5.10;99.90
76203;DHT22;64985;46.364;17.008;2023-05-10T03:46:17;5.20;99.90
76203;DHT22;64985;46.364;17.008;2023-05-10T03:49:19;5.40;99.90
76203;DHT22;64985;46.364;17.008;2023-05-10T03:52:21;5.50;99.90
76203;DHT22;64985;46.364;17.008;2023-05-10T03:55:23;5.40;99.90
76203;DHT22;64985;46.364;17.008;2023-05-10T03:58:25;5.50;99.90
76203;DHT22;64985;46.364;17.008;2023-05-10T04:01:27;5.50;99.90
76203;DHT22;64985;46.364;17.008;2023-05-10T04:04:30;5.60;99.90
76203;DHT22;64985;46.364;17.008;2023-05-10T04:07:32;5.80;99.90
76203;DHT22;64985;46.364;17.008;2023-05-10T04:10:35;5.90;99.90
76203;DHT22;64985;46.364;17.008;2023-05-10T04:13:37;6.10;99.90
76203;DHT22;64985;46.364;17.008;2023-05-10T04:16:40;6.20;99.90
76203;DHT22;64985;46.364;17.008;2023-05-10T04:19:42;6.30;99.90
76203;DHT22;64985;46.364;17.008;2023-05-10T04:22:44;6.50;99.90
76203;DHT22;64985;46.364;17.008;2023-05-10T04:25:46;6.60;99.90
76203;DHT22;64985;46.364;17.008;2023-05-10T04:28:48;6.50;99.90
76203;DHT22;64985;46.364;17.008;2023-05-10T04:31:50;6.40;99.90
76203;DHT22;64985;46.364;17.008;2023-05-10T04:34:52;6.40;99.90
76203;DHT22;64985;46.364;17.008;2023-05-10T04:37:55;6.60;99.90
76203;DHT22;64985;46.364;17.008;2023-05-10T04:41:10;6.60;99.90
76203;DHT22;64985;46.364;17.008;2023-05-10T04:44:13;6.80;99.90
76203;DHT22;64985;46.364;17.008;2023-05-10T04:47:15;6.80;99.90
76203;DHT22;64985;46.364;17.008;2023-05-10T04:50:18;7.00;99.90
76203;DHT22;64985;46.364;17.008;2023-05-10T04:53:21;7.10;99.90
76203;DHT22;64985;46.364;17.008;2023-05-10T04:56:23;7.20;99.90
76203;DHT22;64985;46.364;17.008;2023-05-10T04:59:25;7.50;99.90
76203;DHT22;64985;46.364;17.008;2023-05-10T05:02:27;7.70;99.90
76203;DHT22;64985;46.364;17.008;2023-05-10T05:05:29;8.10;99.90
76203;DHT22;64985;46.364;17.008;2023-05-10T05:08:31;8.20;99.90
76203;DHT22;64985;46.364;17.008;2023-05-10T05:11:36;8.20;99.90
76203;DHT22;64985;46.364;17.008;2023-05-10T05:14:38;8.40;99.90
76203;DHT22;64985;46.364;17.008;2023-05-10T05:17:40;8.60;99.90
76203;DHT22;64985;46.364;17.008;2023-05-10T05:20:42;8.80;99.90
76203;DHT22;64985;46.364;17.008;2023-05-10T05:23:45;8.90;99.90
76203;DHT22;64985;46.364;17.008;2023-05-10T05:26:47;8.90;99.90
76203;DHT22;64985;46.364;17.008;2023-05-10T05:29:52;9.00;99.90
76203;DHT22;64985;46.364;17.008;2023-05-10T05:32:54;9.10;99.90
76203;DHT22;64985;46.364;17.008;2023-05-10T05:35:56;9.20;99.90
76203;DHT22;64985;46.364;17.008;2023-05-10T05:38:58;9.30;99.90
76203;DHT22;64985;46.364;17.008;2023-05-10T05:42:00;9.50;99.90
76203;DHT22;64985;46.364;17.008;2023-05-10T05:45:03;9.80;99.90
76203;DHT22;64985;46.364;17.008;2023-05-10T05:48:05;10.20;99.90
76203;DHT22;64985;46.364;17.008;2023-05-10T05:51:07;10.40;99.90
76203;DHT22;64985;46.364;17.008;2023-05-10T05:54:09;10.90;99.90
76203;DHT22;64985;46.364;17.008;2023-05-10T05:57:11;11.30;99.90
76203;DHT22;64985;46.364;17.008;2023-05-10T06:00:14;11.30;99.90
76203;DHT22;64985;46.364;17.008;2023-05-10T06:03:16;11.60;99.90
76203;DHT22;64985;46.364;17.008;2023-05-10T06:06:18;11.80;99.90
76203;DHT22;64985;46.364;17.008;2023-05-10T06:09:20;12.20;99.90
76203;DHT22;64985;46.364;17.008;2023-05-10T06:12:23;12.60;99.90
76203;DHT22;64985;46.364;17.008;2023-05-10T06:15:25;13.00;99.90
76203;DHT22;64985;46.364;17.008;2023-05-10T06:18:27;13.10;99.60
76203;DHT22;64985;46.364;17.008;2023-05-10T06:21:30;12.80;99.90
76203;DHT22;64985;46.364;17.008;2023-05-10T06:24:32;12.90;99.90
76203;DHT22;64985;46.364;17.008;2023-05-10T06:27:34;13.30;95.30
76203;DHT22;64985;46.364;17.008;2023-05-10T06:30:36;13.50;96.70
76203;DHT22;64985;46.364;17.008;2023-05-10T06:33:38;13.70;99.20
76203;DHT22;64985;46.364;17.008;2023-05-10T06:36:40;14.40;88.30
76203;DHT22;64985;46.364;17.008;2023-05-10T06:39:43;14.80;88.00
76203;DHT22;64985;46.364;17.008;2023-05-10T06:42:45;15.30;94.30
76203;DHT22;64985;46.364;17.008;2023-05-10T06:45:48;15.70;84.50
76203;DHT22;64985;46.364;17.008;2023-05-10T06:48:50;15.80;77.80
76203;DHT22;64985;46.364;17.008;2023-05-10T06:51:52;15.00;76.50
76203;DHT22;64985;46.364;17.008;2023-05-10T06:55:14;15.00;80.90
76203;DHT22;64985;46.364;17.008;2023-05-10T06:58:17;15.50;75.30
76203;DHT22;64985;46.364;17.008;2023-05-10T07:01:19;15.90;77.60
76203;DHT22;64985;46.364;17.008;2023-05-10T07:04:21;16.30;73.60
76203;DHT22;64985;46.364;17.008;2023-05-10T07:07:24;16.40;69.10
76203;DHT22;64985;46.364;17.008;2023-05-10T07:10:26;16.50;67.80
76203;DHT22;64985;46.364;17.008;2023-05-10T07:13:28;16.60;62.00
76203;DHT22;64985;46.364;17.008;2023-05-10T07:16:30;16.80;66.70
76203;DHT22;64985;46.364;17.008;2023-05-10T07:19:32;17.20;63.00
76203;DHT22;64985;46.364;17.008;2023-05-10T07:22:35;16.90;61.70
76203;DHT22;64985;46.364;17.008;2023-05-10T07:25:37;17.40;60.80
76203;DHT22;64985;46.364;17.008;2023-05-10T07:28:39;17.40;64.60
76203;DHT22;64985;46.364;17.008;2023-05-10T07:31:41;17.80;58.20
76203;DHT22;64985;46.364;17.008;2023-05-10T07:34:44;18.10;63.30
76203;DHT22;64985;46.364;17.008;2023-05-10T07:37:46;18.70;57.70
76203;DHT22;64985;46.364;17.008;2023-05-10T07:40:48;18.70;57.10
76203;DHT22;64985;46.364;17.008;2023-05-10T07:43:50;18.40;52.40
76203;DHT22;64985;46.364;17.008;2023-05-10T07:46:52;18.90;57.60
76203;DHT22;64985;46.364;17.008;2023-05-10T07:49:54;19.80;55.90
76203;DHT22;64985;46.364;17.008;2023-05-10T07:52:57;20.40;50.60
76203;DHT22;64985;46.364;17.008;2023-05-10T07:55:59;20.50;54.10
76203;DHT22;64985;46.364;17.008;2023-05-10T07:59:02;20.50;49.20
76203;DHT22;64985;46.364;17.008;2023-05-10T08:02:10;20.40;51.00
76203;DHT22;64985;46.364;17.008;2023-05-10T08:05:13;20.10;53.60
76203;DHT22;64985;46.364;17.008;2023-05-10T08:08:15;19.60;54.00
76203;DHT22;64985;46.364;17.008;2023-05-10T08:11:18;20.30;49.70
76203;DHT22;64985;46.364;17.008;2023-05-10T08:14:20;21.10;49.40
76203;DHT22;64985;46.364;17.008;2023-05-10T08:17:22;19.80;51.80
76203;DHT22;64985;46.364;17.008;2023-05-10T08:20:25;19.60;53.70
76203;DHT22;64985;46.364;17.008;2023-05-10T08:23:27;20.10;51.80
76203;DHT22;64985;46.364;17.008;2023-05-10T08:26:32;20.70;48.30
76203;DHT22;64985;46.364;17.008;2023-05-10T08:29:34;21.50;50.00
76203;DHT22;64985;46.364;17.008;2023-05-10T08:32:50;22.00;48.50
76203;DHT22;64985;46.364;17.008;2023-05-10T08:35:52;20.90;46.60
76203;DHT22;64985;46.364;17.008;2023-05-10T08:38:54;20.10;48.70
76203;DHT22;64985;46.364;17.008;2023-05-10T08:42:01;20.50;50.50
76203;DHT22;64985;46.364;17.008;2023-05-10T08:45:04;20.80;49.20
76203;DHT22;64985;46.364;17.008;2023-05-10T08:48:08;20.20;47.10
76203;DHT22;64985;46.364;17.008;2023-05-10T08:51:15;19.70;49.70
76203;DHT22;64985;46.364;17.008;2023-05-10T08:54:19;20.30;48.50
76203;DHT22;64985;46.364;17.008;2023-05-10T08:57:21;20.00;51.50
76203;DHT22;64985;46.364;17.008;2023-05-10T09:00:23;19.30;47.90
76203;DHT22;64985;46.364;17.008;2023-05-10T09:03:26;20.00;50.20
76203;DHT22;64985;46.364;17.008;2023-05-10T09:06:29;20.60;50.80
76203;DHT22;64985;46.364;17.008;2023-05-10T09:09:31;21.10;50.70
76203;DHT22;64985;46.364;17.008;2023-05-10T09:12:34;21.30;49.10
76203;DHT22;64985;46.364;17.008;2023-05-10T09:15:37;21.30;48.40
76203;DHT22;64985;46.364;17.008;2023-05-10T09:18:39;21.50;49.70
76203;DHT22;64985;46.364;17.008;2023-05-10T09:21:41;21.80;46.90
76203;DHT22;64985;46.364;17.008;2023-05-10T09:24:44;21.20;48.50
76203;DHT22;64985;46.364;17.008;2023-05-10T09:27:48;20.80;49.80
76203;DHT22;64985;46.364;17.008;2023-05-10T09:30:53;21.10;49.70
76203;DHT22;64985;46.364;17.008;2023-05-10T09:33:57;20.80;49.90
76203;DHT22;64985;46.364;17.008;2023-05-10T09:37:01;20.10;49.50
76203;DHT22;64985;46.364;17.008;2023-05-10T09:40:05;20.30;52.20
76203;DHT22;64985;46.364;17.008;2023-05-10T09:43:09;21.00;51.20
76203;DHT22;64985;46.364;17.008;2023-05-10T09:46:12;21.00;47.50
76203;DHT22;64985;46.364;17.008;2023-05-10T09:49:15;20.30;48.20
76203;DHT22;64985;46.364;17.008;2023-05-10T09:52:17;20.90;48.10
76203;DHT22;64985;46.364;17.008;2023-05-10T09:55:21;20.20;45.80
76203;DHT22;64985;46.364;17.008;2023-05-10T09:58:23;20.20;50.20
76203;DHT22;64985;46.364;17.008;2023-05-10T10:01:29;21.40;47.20
76203;DHT22;64985;46.364;17.008;2023-05-10T10:04:31;21.80;48.80
76203;DHT22;64985;46.364;17.008;2023-05-10T10:07:34;21.70;45.80
76203;DHT22;64985;46.364;17.008;2023-05-10T10:10:37;21.50;44.90
76203;DHT22;64985;46.364;17.008;2023-05-10T10:13:40;21.10;45.00
76203;DHT22;64985;46.364;17.008;2023-05-10T10:16:42;21.10;42.80
76203;DHT22;64985;46.364;17.008;2023-05-10T10:20:05;21.40;48.20
76203;DHT22;64985;46.364;17.008;2023-05-10T10:23:09;21.30;45.60
76203;DHT22;64985;46.364;17.008;2023-05-10T10:26:12;20.60;47.70
76203;DHT22;64985;46.364;17.008;2023-05-10T10:29:36;20.80;47.10
76203;DHT22;64985;46.364;17.008;2023-05-10T10:36:29;20.70;45.70
76203;DHT22;64985;46.364;17.008;2023-05-10T10:39:32;20.20;47.10
76203;DHT22;64985;46.364;17.008;2023-05-10T10:42:47;20.00;46.30
76203;DHT22;64985;46.364;17.008;2023-05-10T10:46:16;20.60;43.90
76203;DHT22;64985;46.364;17.008;2023-05-10T10:49:19;21.00;45.10
76203;DHT22;64985;46.364;17.008;2023-05-10T10:55:47;21.00;43.60
76203;DHT22;64985;46.364;17.008;2023-05-10T10:58:50;21.00;46.10
76203;DHT22;64985;46.364;17.008;2023-05-10T11:01:55;20.60;45.60
76203;DHT22;64985;46.364;17.008;2023-05-10T11:04:58;21.10;44.10
76203;DHT22;64985;46.364;17.008;2023-05-10T11:08:06;20.90;45.70
76203;DHT22;64985;46.364;17.008;2023-05-10T11:11:08;20.50;44.20
76203;DHT22;64985;46.364;17.008;2023-05-10T11:14:10;20.10;47.40
76203;DHT22;64985;46.364;17.008;2023-05-10T11:17:26;20.70;46.00
76203;DHT22;64985;46.364;17.008;2023-05-10T11:20:39;20.40;47.60
76203;DHT22;64985;46.364;17.008;2023-05-10T11:26:53;20.60;45.60
76203;DHT22;64985;46.364;17.008;2023-05-10T11:29:55;20.40;45.70
76203;DHT22;64985;46.364;17.008;2023-05-10T11:32:58;20.20;44.10
76203;DHT22;64985;46.364;17.008;2023-05-10T11:36:00;20.40;47.70
76203;DHT22;64985;46.364;17.008;2023-05-10T11:39:03;20.90;46.00
76203;DHT22;64985;46.364;17.008;2023-05-10T11:42:06;22.50;46.80
76203;DHT22;64985;46.364;17.008;2023-05-10T11:45:11;23.60;43.20
76203;DHT22;64985;46.364;17.008;2023-05-10T11:48:13;23.50;43.50
76203;DHT22;64985;46.364;17.008;2023-05-10T11:51:15;23.50;40.50
76203;DHT22;64985;46.364;17.008;2023-05-10T11:54:21;23.50;43.10
76203;DHT22;64985;46.364;17.008;2023-05-10T11:57:26;22.50;44.70
76203;DHT22;64985;46.364;17.008;2023-05-10T12:00:29;22.00;44.00
76203;DHT22;64985;46.364;17.008;2023-05-10T12:03:32;23.30;46.60
76203;DHT22;64985;46.364;17.008;2023-05-10T12:06:40;23.90;43.80
76203;DHT22;64985;46.364;17.008;2023-05-10T12:10:08;22.60;42.70
76203;DHT22;64985;46.364;17.008;2023-05-10T12:13:12;22.50;43.70
76203;DHT22;64985;46.364;17.008;2023-05-10T12:16:20;23.20;40.50
76203;DHT22;64985;46.364;17.008;2023-05-10T12:19:23;23.40;44.00
76203;DHT22;64985;46.364;17.008;2023-05-10T12:22:25;23.40;44.00
76203;DHT22;64985;46.364;17.008;2023-05-10T12:25:34;23.00;43.60
76203;DHT22;64985;46.364;17.008;2023-05-10T12:28:37;22.70;43.60
76203;DHT22;64985;46.364;17.008;2023-05-10T12:31:53;22.80;43.10
76203;DHT22;64985;46.364;17.008;2023-05-10T12:34:57;22.80;43.40
76203;DHT22;64985;46.364;17.008;2023-05-10T12:37:59;22.80;45.00
76203;DHT22;64985;46.364;17.008;2023-05-10T12:41:03;22.60;43.50
76203;DHT22;64985;46.364;17.008;2023-05-10T12:44:06;22.60;42.50
76203;DHT22;64985;46.364;17.008;2023-05-10T12:47:08;22.90;44.00
76203;DHT22;64985;46.364;17.008;2023-05-10T12:50:12;22.70;42.00
76203;DHT22;64985;46.364;17.008;2023-05-10T12:53:15;22.30;41.60
76203;DHT22;64985;46.364;17.008;2023-05-10T12:56:17;22.00;40.50
76203;DHT22;64985;46.364;17.008;2023-05-10T12:59:19;22.00;39.80
76203;DHT22;64985;46.364;17.008;2023-05-10T13:02:21;21.60;40.40
76203;DHT22;64985;46.364;17.008;2023-05-10T13:05:24;21.60;42.30
76203;DHT22;64985;46.364;17.008;2023-05-10T13:08:26;22.60;39.20
76203;DHT22;64985;46.364;17.008;2023-05-10T13:11:29;22.40;41.80
76203;DHT22;64985;46.364;17.008;2023-05-10T13:14:31;22.30;38.80
76203;DHT22;64985;46.364;17.008;2023-05-10T13:17:33;22.10;40.50
76203;DHT22;64985;46.364;17.008;2023-05-10T13:20:35;22.30;40.10
76203;DHT22;64985;46.364;17.008;2023-05-10T13:23:38;21.60;39.40
76203;DHT22;64985;46.364;17.008;2023-05-10T13:26:40;21.10;40.70
76203;DHT22;64985;46.364;17.008;2023-05-10T13:29:42;21.30;43.70
76203;DHT22;64985;46.364;17.008;2023-05-10T13:32:46;21.80;42.30
76203;DHT22;64985;46.364;17.008;2023-05-10T13:35:48;22.20;42.30
76203;DHT22;64985;46.364;17.008;2023-05-10T13:38:50;22.10;42.10
76203;DHT22;64985;46.364;17.008;2023-05-10T13:41:52;22.60;42.00
76203;DHT22;64985;46.364;17.008;2023-05-10T13:44:56;22.60;39.20
76203;DHT22;64985;46.364;17.008;2023-05-10T13:47:58;23.00;40.40
76203;DHT22;64985;46.364;17.008;2023-05-10T13:51:00;23.50;42.30
76203;DHT22;64985;46.364;17.008;2023-05-10T13:54:02;23.90;40.70
76203;DHT22;64985;46.364;17.008;2023-05-10T13:57:05;24.00;40.30
76203;DHT22;64985;46.364;17.008;2023-05-10T14:00:07;23.70;39.50
76203;DHT22;64985;46.364;17.008;2023-05-10T14:03:09;23.50;39.20
76203;DHT22;64985;46.364;17.008;2023-05-10T14:06:13;22.60;40.30
76203;DHT22;64985;46.364;17.008;2023-05-10T14:09:15;21.70;38.50
76203;DHT22;64985;46.364;17.008;2023-05-10T14:12:18;20.90;40.80
76203;DHT22;64985;46.364;17.008;2023-05-10T14:15:20;21.30;38.60
76203;DHT22;64985;46.364;17.008;2023-05-10T14:18:22;22.40;40.40
76203;DHT22;64985;46.364;17.008;2023-05-10T14:21:24;22.90;41.20
76203;DHT22;64985;46.364;17.008;2023-05-10T14:24:26;23.00;37.10
76203;DHT22;64985;46.364;17.008;2023-05-10T14:27:29;23.30;42.10
76203;DHT22;64985;46.364;17.008;2023-05-10T14:30:32;23.50;37.00
76203;DHT22;64985;46.364;17.008;2023-05-10T14:33:35;23.20;37.00
76203;DHT22;64985;46.364;17.008;2023-05-10T14:36:37;23.30;39.10
76203;DHT22;64985;46.364;17.008;2023-05-10T14:39:39;23.00;36.70
76203;DHT22;64985;46.364;17.008;2023-05-10T14:42:42;22.90;37.00
76203;DHT22;64985;46.364;17.008;2023-05-10T14:45:44;21.60;37.80
76203;DHT22;64985;46.364;17.008;2023-05-10T14:48:47;21.10;38.70
76203;DHT22;64985;46.364;17.008;2023-05-10T14:51:49;20.80;39.70
76203;DHT22;64985;46.364;17.008;2023-05-10T14:54:51;20.70;40.60
76203;DHT22;64985;46.364;17.008;2023-05-10T14:57:53;20.70;40.80
76203;DHT22;64985;46.364;17.008;2023-05-10T15:00:56;20.70;39.30
76203;DHT22;64985;46.364;17.008;2023-05-10T15:03:59;20.80;39.70
76203;DHT22;64985;46.364;17.008;2023-05-10T15:07:01;21.10;38.80
76203;DHT22;64985;46.364;17.008;2023-05-10T15:10:04;21.50;39.30
76203;DHT22;64985;46.364;17.008;2023-05-10T15:13:06;21.30;39.30
76203;DHT22;64985;46.364;17.008;2023-05-10T15:16:08;21.20;41.50
76203;DHT22;64985;46.364;17.008;2023-05-10T15:19:10;20.60;40.40
76203;DHT22;64985;46.364;17.008;2023-05-10T15:22:12;20.40;41.00
76203;DHT22;64985;46.364;17.008;2023-05-10T15:25:14;20.50;41.50
76203;DHT22;64985;46.364;17.008;2023-05-10T15:28:18;21.20;40.60
76203;DHT22;64985;46.364;17.008;2023-05-10T15:31:20;22.10;38.10
76203;DHT22;64985;46.364;17.008;2023-05-10T15:34:22;22.90;39.60
76203;DHT22;64985;46.364;17.008;2023-05-10T15:37:24;22.90;38.80
76203;DHT22;64985;46.364;17.008;2023-05-10T15:40:26;22.60;37.90
76203;DHT22;64985;46.364;17.008;2023-05-10T15:43:28;22.00;39.90
76203;DHT22;64985;46.364;17.008;2023-05-10T15:46:30;21.90;40.00
76203;DHT22;64985;46.364;17.008;2023-05-10T15:49:32;21.60;40.30
76203;DHT22;64985;46.364;17.008;2023-05-10T15:52:34;20.90;40.80
76203;DHT22;64985;46.364;17.008;2023-05-10T15:55:36;20.30;40.40
76203;DHT22;64985;46.364;17.008;2023-05-10T15:58:40;19.90;40.70
76203;DHT22;64985;46.364;17.008;2023-05-10T16:01:43;19.70;41.70
76203;DHT22;64985;46.364;17.008;2023-05-10T16:04:45;19.40;41.60
76203;DHT22;64985;46.364;17.008;2023-05-10T16:07:47;19.40;41.00
76203;DHT22;64985;46.364;17.008;2023-05-10T16:10:50;19.50;42.70
76203;DHT22;64985;46.364;17.008;2023-05-10T16:13:52;19.60;42.40
76203;DHT22;64985;46.364;17.008;2023-05-10T16:16:55;19.90;41.90
76203;DHT22;64985;46.364;17.008;2023-05-10T16:19:57;20.00;41.80
76203;DHT22;64985;46.364;17.008;2023-05-10T16:23:02;20.10;43.00
76203;DHT22;64985;46.364;17.008;2023-05-10T16:26:05;20.40;43.00
76203;DHT22;64985;46.364;17.008;2023-05-10T16:29:07;20.50;41.70
76203;DHT22;64985;46.364;17.008;2023-05-10T16:32:09;20.50;42.70
76203;DHT22;64985;46.364;17.008;2023-05-10T16:35:12;20.50;42.50
76203;DHT22;64985;46.364;17.008;2023-05-10T16:38:14;20.40;42.40
76203;DHT22;64985;46.364;17.008;2023-05-10T16:41:16;20.30;42.10
76203;DHT22;64985;46.364;17.008;2023-05-10T16:44:18;20.00;41.40
76203;DHT22;64985;46.364;17.008;2023-05-10T16:47:22;19.70;42.00
76203;DHT22;64985;46.364;17.008;2023-05-10T16:50:27;19.50;42.40
76203;DHT22;64985;46.364;17.008;2023-05-10T16:53:29;19.20;42.70
76203;DHT22;64985;46.364;17.008;2023-05-10T16:56:32;19.00;45.30
76203;DHT22;64985;46.364;17.008;2023-05-10T16:59:34;18.80;43.80
76203;DHT22;64985;46.364;17.008;2023-05-10T17:02:36;18.70;43.70
76203;DHT22;64985;46.364;17.008;2023-05-10T17:05:39;18.60;48.40
76203;DHT22;64985;46.364;17.008;2023-05-10T17:08:41;18.50;49.40
76203;DHT22;64985;46.364;17.008;2023-05-10T17:11:43;18.30;51.20
76203;DHT22;64985;46.364;17.008;2023-05-10T17:14:45;18.10;54.40
76203;DHT22;64985;46.364;17.008;2023-05-10T17:17:47;17.80;54.20
76203;DHT22;64985;46.364;17.008;2023-05-10T17:20:49;17.60;54.30
76203;DHT22;64985;46.364;17.008;2023-05-10T17:23:51;17.50;53.30
76203;DHT22;64985;46.364;17.008;2023-05-10T17:26:54;17.40;54.80
76203;DHT22;64985;46.364;17.008;2023-05-10T17:29:56;17.10;56.10
76203;DHT22;64985;46.364;17.008;2023-05-10T17:32:59;17.00;55.30
76203;DHT22;64985;46.364;17.008;2023-05-10T17:36:02;16.80;58.00
76203;DHT22;64985;46.364;17.008;2023-05-10T17:39:04;16.50;62.30
76203;DHT22;64985;46.364;17.008;2023-05-10T17:42:07;16.30;67.80
76203;DHT22;64985;46.364;17.008;2023-05-10T17:45:10;16.00;61.00
76203;DHT22;64985;46.364;17.008;2023-05-10T17:48:12;15.80;83.40
76203;DHT22;64985;46.364;17.008;2023-05-10T17:51:14;15.50;93.00
76203;DHT22;64985;46.364;17.008;2023-05-10T17:54:16;15.20;95.40
76203;DHT22;64985;46.364;17.008;2023-05-10T17:57:18;15.10;92.00
76203;DHT22;64985;46.364;17.008;2023-05-10T18:00:21;14.90;91.60
76203;DHT22;64985;46.364;17.008;2023-05-10T18:03:23;14.70;94.30
76203;DHT22;64985;46.364;17.008;2023-05-10T18:06:26;14.60;97.40
76203;DHT22;64985;46.364;17.008;2023-05-10T18:09:28;14.40;98.70
76203;DHT22;64985;46.364;17.008;2023-05-10T18:12:30;14.30;99.90
76203;DHT22;64985;46.364;17.008;2023-05-10T18:15:33;14.20;95.70
76203;DHT22;64985;46.364;17.008;2023-05-10T18:18:35;14.10;97.10
76203;DHT22;64985;46.364;17.008;2023-05-10T18:21:38;14.00;98.60
76203;DHT22;64985;46.364;17.008;2023-05-10T18:24:41;13.90;95.60
76203;DHT22;64985;46.364;17.008;2023-05-10T18:27:43;13.90;99.90
76203;DHT22;64985;46.364;17.008;2023-05-10T18:30:46;13.80;99.10
76203;DHT22;64985;46.364;17.008;2023-05-10T18:33:49;13.70;99.90
76203;DHT22;64985;46.364;17.008;2023-05-10T18:36:52;13.60;99.70
76203;DHT22;64985;46.364;17.008;2023-05-10T18:39:55;13.50;99.90
76203;DHT22;64985;46.364;17.008;2023-05-10T18:42:59;13.50;99.90
76203;DHT22;64985;46.364;17.008;2023-05-10T18:46:02;13.40;99.80
76203;DHT22;64985;46.364;17.008;2023-05-10T18:49:05;13.40;99.90
76203;DHT22;64985;46.364;17.008;2023-05-10T18:52:10;13.30;99.90
76203;DHT22;64985;46.364;17.008;2023-05-10T18:55:14;13.30;99.90
76203;DHT22;64985;46.364;17.008;2023-05-10T18:58:18;13.30;99.90
76203;DHT22;64985;46.364;17.008;2023-05-10T19:01:23;13.30;99.90
76203;DHT22;64985;46.364;17.008;2023-05-10T19:04:27;13.30;99.90
76203;DHT22;64985;46.364;17.008;2023-05-10T19:07:31;13.30;99.90
76203;DHT22;64985;46.364;17.008;2023-05-10T19:10:34;13.30;99.10
76203;DHT22;64985;46.364;17.008;2023-05-10T19:13:39;13.40;97.70
76203;DHT22;64985;46.364;17.008;2023-05-10T19:16:42;13.40;97.70
76203;DHT22;64985;46.364;17.008;2023-05-10T19:19:46;13.50;99.20
76203;DHT22;64985;46.364;17.008;2023-05-10T19:22:52;13.50;97.10
76203;DHT22;64985;46.364;17.008;2023-05-10T19:26:12;13.50;94.20
76203;DHT22;64985;46.364;17.008;2023-05-10T19:29:17;13.80;88.70